Time;durP1;ratioP1;P1;durP2;ratioP2;P2;SDS_P1;SDS_P2;PMS_P1;PMS_P2;Temp;Humidity;BMP_temperature;BMP_pressure;BME280_temperature;BME280_humidity;BME280_pressure;Samples;Min_cycle;Max_cycle;Signal;HPM_P1;HPM_P2
2022/04/04 00:00:04;;;;;;;14.13;11.20;;;;;;;-0.19;100.00;101179.47;695699;28;1467;-79
2022/04/04 00:00:24;;;;;;;13.95;11.43;;;;;;;-0.14;100.00;101184.81;697920;28;1579;-79
2022/04/04 00:00:46;;;;;;;12.05;10.75;;;;;;;-0.10;100.00;101189.28;694198;28;1358;-79
2022/04/04 00:01:06;;;;;;;12.60;11.27;;;;;;;-0.11;100.00;101178.94;692498;28;1501;-79
2022/04/04 00:01:26;;;;;;;13.13;11.55;;;;;;;-0.20;100.00;101193.13;693057;28;1234;-78
2022/04/04 00:01:47;;;;;;;13.00;11.40;;;;;;;-0.28;100.00;101179.03;692178;28;1197;-79
2022/04/04 00:02:08;;;;;;;13.10;11.70;;;;;;;-0.24;100.00;101190.34;696998;28;1391;-79
2022/04/04 00:02:31;;;;;;;12.77;11.48;;;;;;;-0.26;100.00;101204.81;693484;28;4489;-79
2022/04/04 00:02:51;;;;;;;12.90;11.55;;;;;;;-0.27;100.00;101211.63;693436;28;1363;-79
2022/04/04 00:03:12;;;;;;;12.50;11.20;;;;;;;-0.24;100.00;101209.19;691440;28;1219;-79
2022/04/04 00:03:33;;;;;;;11.98;10.60;;;;;;;-0.14;100.00;101184.81;693281;28;1584;-79
2022/04/04 00:03:53;;;;;;;11.93;10.40;;;;;;;-0.12;100.00;101184.91;693979;28;1410;-79
2022/04/04 00:04:14;;;;;;;13.82;11.43;;;;;;;-0.07;100.00;101184.31;694612;28;1499;-79
2022/04/04 00:04:35;;;;;;;13.10;11.57;;;;;;;-0.10;100.00;101227.84;691589;28;1567;-79
2022/04/04 00:04:55;;;;;;;13.40;11.93;;;;;;;-0.14;100.00;101217.34;690765;28;1349;-78
2022/04/04 00:05:16;;;;;;;13.30;11.90;;;;;;;-0.20;100.00;101184.53;696482;28;1490;-79
2022/04/04 00:05:37;;;;;;;13.48;11.75;;;;;;;-0.23;100.00;101192.97;692959;28;4343;-79
2022/04/04 00:05:57;;;;;;;14.80;11.60;;;;;;;-0.26;100.00;101179.13;698178;28;1556;-79
2022/04/04 00:06:18;;;;;;;14.43;11.40;;;;;;;-0.23;100.00;101189.53;695624;28;1357;-79
2022/04/04 00:06:40;;;;;;;13.30;11.30;;;;;;;-0.23;100.00;101197.25;693645;28;1331;-79
2022/04/04 00:07:02;;;;;;;12.95;11.13;;;;;;;-0.24;100.00;101228.88;693165;28;1097;-79
2022/04/04 00:07:23;;;;;;;13.93;11.15;;;;;;;-0.28;100.00;101209.00;691854;28;1207;-79
2022/04/04 00:07:44;;;;;;;13.97;11.10;;;;;;;-0.33;100.00;101190.78;691110;28;1218;-79
2022/04/04 00:08:10;;;;;;;13.40;11.35;;;;;;;-0.36;100.00;101190.63;695713;28;1323;-80
2022/04/04 00:08:33;;;;;;;12.70;11.18;;;;;;;-0.36;100.00;101198.34;692989;28;5195;-78
2022/04/04 00:08:53;;;;;;;13.23;11.48;;;;;;;-0.39;100.00;101208.47;696679;28;1325;-79
2022/04/04 00:09:14;;;;;;;13.18;11.23;;;;;;;-0.37;100.00;101207.75;694716;28;1344;-78
2022/04/04 00:09:34;;;;;;;12.80;11.18;;;;;;;-0.31;100.00;101235.41;696008;28;1275;-79
2022/04/04 00:09:56;;;;;;;12.80;11.00;;;;;;;-0.29;100.00;101208.13;693437;28;972;-79
2022/04/04 00:10:16;;;;;;;12.10;10.73;;;;;;;-0.26;100.00;101181.69;694058;28;2352;-79
2022/04/04 00:10:37;;;;;;;13.07;10.90;;;;;;;-0.32;100.00;101205.38;693477;28;1268;-79
2022/04/04 00:11:01;;;;;;;13.75;11.68;;;;;;;-0.33;100.00;101197.59;693129;28;1155;-78
2022/04/04 00:11:22;;;;;;;13.68;11.40;;;;;;;-0.38;100.00;101213.69;691143;28;1562;-79
2022/04/04 00:11:45;;;;;;;13.88;11.23;;;;;;;-0.35;100.00;101177.88;689123;28;4964;-79
2022/04/04 00:12:05;;;;;;;13.40;11.48;;;;;;;-0.29;100.00;101179.84;690653;28;1734;-79
2022/04/04 00:12:27;;;;;;;12.88;11.45;;;;;;;-0.24;100.00;101213.47;691485;28;1421;-79
2022/04/04 00:12:48;;;;;;;12.75;11.20;;;;;;;-0.27;100.00;101185.06;690920;28;1267;-79
2022/04/04 00:13:09;;;;;;;13.20;11.55;;;;;;;-0.36;100.00;101214.66;693001;28;1302;-78
2022/04/04 00:13:29;;;;;;;12.57;11.27;;;;;;;-0.40;100.00;101178.44;692363;28;1629;-79
2022/04/04 00:13:53;;;;;;;13.00;11.60;;;;;;;-0.40;100.00;101183.56;690730;28;932;-79
2022/04/04 00:14:14;;;;;;;13.10;11.40;;;;;;;-0.38;100.00;101205.09;690973;28;1287;-79
2022/04/04 00:14:37;;;;;;;13.15;11.75;;;;;;;-0.38;100.00;101194.81;690012;28;4378;-79
2022/04/04 00:14:58;;;;;;;12.88;11.48;;;;;;;-0.39;100.00;101211.03;696772;28;1417;-79
2022/04/04 00:15:21;;;;;;;12.88;11.20;;;;;;;-0.43;100.00;101184.34;697392;28;1453;-79
2022/04/04 00:15:41;;;;;;;13.93;11.82;;;;;;;-0.42;100.00;101214.34;693513;28;1373;-79
2022/04/04 00:16:02;;;;;;;16.08;11.75;;;;;;;-0.44;100.00;101190.28;691277;28;1129;-79
2022/04/04 00:16:22;;;;;;;14.90;11.70;;;;;;;-0.40;100.00;101181.91;692915;28;1791;-78
2022/04/04 00:16:43;;;;;;;12.85;11.43;;;;;;;-0.41;100.00;101192.13;694182;28;1689;-78
2022/04/04 00:17:04;;;;;;;13.63;11.47;;;;;;;-0.38;100.00;101167.44;691358;28;1332;-78
2022/04/04 00:17:25;;;;;;;13.05;11.65;;;;;;;-0.35;100.00;101185.59;693446;28;4397;-79
2022/04/04 00:17:48;;;;;;;13.15;11.23;;;;;;;-0.37;100.00;101194.91;693682;28;1036;-79
2022/04/04 00:18:10;;;;;;;12.73;11.25;;;;;;;-0.37;100.00;101184.63;693517;28;1193;-78
2022/04/04 00:18:31;;;;;;;13.27;11.65;;;;;;;-0.40;100.00;101192.19;691008;28;1226;-79
2022/04/04 00:18:52;;;;;;;13.55;11.30;;;;;;;-0.41;100.00;101197.25;690716;28;2075;-78
2022/04/04 00:19:14;;;;;;;14.15;11.93;;;;;;;-0.37;100.00;101176.91;692473;28;1144;-79
2022/04/04 00:19:35;;;;;;;13.02;11.50;;;;;;;-0.43;100.00;101183.44;694096;28;1251;-79
2022/04/04 00:19:57;;;;;;;13.43;11.48;;;;;;;-0.51;100.00;101175.38;695994;28;1388;-79
2022/04/04 00:20:17;;;;;;;13.43;11.50;;;;;;;-0.57;100.00;101190.47;696497;28;1089;-79
2022/04/04 00:20:39;;;;;;;13.65;11.75;;;;;;;-0.64;100.00;101193.56;696228;28;4338;-79
2022/04/04 00:21:00;;;;;;;12.90;11.50;;;;;;;-0.71;100.00;101175.28;694443;28;1277;-79
2022/04/04 00:21:21;;;;;;;13.52;11.80;;;;;;;-0.74;100.00;101207.63;694240;28;1607;-79
2022/04/04 00:21:42;;;;;;;13.77;11.80;;;;;;;-0.75;100.00;101221.25;697527;28;1098;-79
2022/04/04 00:22:03;;;;;;;13.13;11.23;;;;;;;-0.73;100.00;101201.69;694237;28;1258;-79
2022/04/04 00:22:25;;;;;;;12.68;11.38;;;;;;;-0.73;100.00;101176.88;697233;28;909;-78
2022/04/04 00:22:46;;;;;;;13.07;11.63;;;;;;;-0.70;100.00;101206.97;691912;28;1442;-79
2022/04/04 00:23:12;;;;;;;13.25;11.80;;;;;;;-0.71;100.00;101206.09;695961;28;979;-79
2022/04/04 00:23:32;;;;;;;13.57;11.43;;;;;;;-0.70;100.00;101224.94;696098;28;4300;-79
2022/04/04 00:23:53;;;;;;;13.47;11.63;;;;;;;-0.66;100.00;101190.03;695798;28;1544;-79
2022/04/04 00:24:14;;;;;;;13.65;11.60;;;;;;;-0.64;100.00;101170.44;691006;28;1335;-79
2022/04/04 00:24:36;;;;;;;13.43;11.35;;;;;;;-0.63;100.00;101173.09;689318;28;1250;-79
2022/04/04 00:24:59;;;;;;;13.07;11.05;;;;;;;-0.61;100.00;101186.91;691051;28;1248;-79
2022/04/04 00:25:19;;;;;;;13.50;11.43;;;;;;;-0.61;100.00;101188.56;688450;28;1231;-79
2022/04/04 00:25:45;;;;;;;13.37;11.97;;;;;;;-0.62;100.00;101171.38;691602;28;1353;-79
2022/04/04 00:26:05;;;;;;;13.70;12.00;;;;;;;-0.61;100.00;101173.16;693113;28;949;-79
2022/04/04 00:26:28;;;;;;;13.83;12.27;;;;;;;-0.65;100.00;101182.41;695851;28;4323;-79
2022/04/04 00:26:51;;;;;;;13.05;11.57;;;;;;;-0.65;100.00;101202.06;695472;28;1323;-79
2022/04/04 00:27:12;;;;;;;13.73;11.13;;;;;;;-0.59;100.00;101171.56;696465;28;852;-79
2022/04/04 00:27:33;;;;;;;12.35;10.98;;;;;;;-0.59;100.00;101171.56;698022;28;1716;-79
2022/04/04 00:27:56;;;;;;;12.23;10.88;;;;;;;-0.57;100.00;101167.34;695751;28;1516;-79
2022/04/04 00:28:17;;;;;;;12.55;10.75;;;;;;;-0.60;100.00;101169.78;697817;28;1091;-79
2022/04/04 00:28:39;;;;;;;12.70;11.30;;;;;;;-0.63;100.00;101175.66;700532;28;1593;-79
2022/04/04 00:29:00;;;;;;;12.90;11.27;;;;;;;-0.70;100.00;101205.28;696954;28;1266;-79
2022/04/04 00:29:23;;;;;;;12.38;11.07;;;;;;;-0.74;100.00;101197.34;694231;28;1040;-78
2022/04/04 00:29:43;;;;;;;13.52;11.45;;;;;;;-0.73;100.00;101207.69;694416;28;4295;-79
2022/04/04 00:30:04;;;;;;;12.88;11.35;;;;;;;-0.69;100.00;101191.63;694459;28;1180;-79
2022/04/04 00:30:26;;;;;;;12.75;10.80;;;;;;;-0.64;100.00;101166.19;696886;28;1971;-79
2022/04/04 00:30:47;;;;;;;13.07;11.25;;;;;;;-0.64;100.00;101175.56;693017;28;1015;-78
2022/04/04 00:31:07;;;;;;;14.20;11.77;;;;;;;-0.65;100.00;101166.09;691951;28;1243;-79
2022/04/04 00:31:27;;;;;;;14.32;11.75;;;;;;;-0.65;100.00;101166.09;694545;28;1326;-79
2022/04/04 00:31:50;;;;;;;13.02;11.32;;;;;;;-0.66;100.00;101167.81;694518;28;1381;-79
2022/04/04 00:32:10;;;;;;;13.45;11.75;;;;;;;-0.67;100.00;101170.31;696385;28;1403;-79
2022/04/04 00:32:31;;;;;;;12.95;11.50;;;;;;;-0.71;100.00;101183.00;698166;28;4275;-79
2022/04/04 00:32:54;;;;;;;12.87;11.43;;;;;;;-0.74;100.00;101198.22;695260;28;1299;-79
2022/04/04 00:33:15;;;;;;;13.63;11.45;;;;;;;-0.70;100.00;101210.41;695972;28;1420;-79
2022/04/04 00:33:35;;;;;;;14.27;11.30;;;;;;;-0.70;100.00;101200.13;696656;28;1222;-79
2022/04/04 00:33:56;;;;;;;13.75;11.75;;;;;;;-0.67;100.00;101183.13;693207;28;1440;-79
2022/04/04 00:34:22;;;;;;;13.43;11.88;;;;;;;-0.67;100.00;101170.31;693197;28;4771;-79
2022/04/04 00:34:43;;;;;;;14.60;12.10;;;;;;;-0.70;100.00;101173.59;696453;28;1349;-79
2022/04/04 00:35:04;;;;;;;14.13;11.77;;;;;;;-0.76;100.00;101166.47;694579;28;1385;-79
2022/04/04 00:35:27;;;;;;;14.07;11.57;;;;;;;-0.76;100.00;101204.09;694887;28;4369;-79
2022/04/04 00:35:47;;;;;;;13.05;11.60;;;;;;;-0.80;100.00;101164.56;693233;28;1508;-78
2022/04/04 00:36:11;;;;;;;13.40;12.00;;;;;;;-0.82;100.00;101166.16;691295;28;1471;-79
2022/04/04 00:36:32;;;;;;;13.98;11.90;;;;;;;-0.87;100.00;101180.47;691631;28;1604;-80
2022/04/04 00:36:55;;;;;;;13.50;11.10;;;;;;;-0.87;100.00;101172.78;690094;28;1723;-79
2022/04/04 00:37:17;;;;;;;13.27;11.48;;;;;;;-0.92;100.00;101197.31;693365;28;1321;-79
2022/04/04 00:37:38;;;;;;;13.20;11.70;;;;;;;-0.94;100.00;101166.44;690456;28;1421;-79
2022/04/04 00:37:59;;;;;;;13.27;11.70;;;;;;;-0.86;100.00;101166.81;690549;28;1245;-79
2022/04/04 00:38:22;;;;;;;13.43;12.02;;;;;;;-0.83;100.00;101166.97;692166;28;1653;-78
2022/04/04 00:38:43;;;;;;;13.95;11.32;;;;;;;-0.79;100.00;101163.75;692940;28;4512;-78
2022/04/04 00:39:04;;;;;;;12.98;11.38;;;;;;;-0.81;100.00;101165.34;693864;28;1687;-79
2022/04/04 00:39:26;;;;;;;14.30;11.57;;;;;;;-0.84;100.00;101167.78;694090;28;1485;-79
2022/04/04 00:39:49;;;;;;;13.43;11.32;;;;;;;-0.90;100.00;101176.06;691942;28;1451;-79
2022/04/04 00:40:09;;;;;;;13.00;11.50;;;;;;;-0.95;100.00;101176.63;691898;28;1303;-79
2022/04/04 00:40:30;;;;;;;13.87;11.70;;;;;;;-0.96;100.00;101173.16;693653;28;1472;-79
2022/04/04 00:40:50;;;;;;;14.63;11.63;;;;;;;-0.97;100.00;101170.53;692323;28;1765;-78
2022/04/04 00:41:19;;;;;;;13.93;11.57;;;;;;;-0.97;100.00;101171.44;695591;28;1926;-78
2022/04/04 00:41:39;;;;;;;13.10;11.38;;;;;;;-0.92;100.00;101171.66;695962;28;4273;-78
2022/04/04 00:42:00;;;;;;;13.05;11.15;;;;;;;-0.87;100.00;101165.06;693469;28;1390;-78
2022/04/04 00:42:20;;;;;;;14.40;11.73;;;;;;;-0.89;100.00;101169.22;694489;28;1480;-79
2022/04/04 00:42:41;;;;;;;15.68;12.05;;;;;;;-0.93;100.00;101168.22;690742;28;1282;-78
2022/04/04 00:43:01;;;;;;;14.57;11.93;;;;;;;-0.93;100.00;101175.00;692991;28;1605;-78
2022/04/04 00:43:22;;;;;;;14.15;11.93;;;;;;;-0.95;100.00;101179.19;690413;28;1540;-79
2022/04/04 00:43:42;;;;;;;13.88;11.68;;;;;;;-0.93;100.00;101165.66;691402;28;1574;-78
2022/04/04 00:44:03;;;;;;;14.27;11.77;;;;;;;-0.90;100.00;101172.59;694745;28;1744;-78
2022/04/04 00:44:27;;;;;;;13.43;11.32;;;;;;;-0.92;100.00;101169.09;691088;28;4271;-78
2022/04/04 00:44:47;;;;;;;13.48;11.80;;;;;;;-0.91;100.00;101163.16;693793;28;1921;-78
2022/04/04 00:45:08;;;;;;;14.70;12.37;;;;;;;-0.93;100.00;101167.31;694323;28;1400;-78
2022/04/04 00:45:29;;;;;;;14.63;11.85;;;;;;;-0.94;100.00;101162.97;688438;28;1430;-78
2022/04/04 00:45:50;;;;;;;13.43;11.63;;;;;;;-0.93;100.00;101175.91;688903;28;1353;-78
2022/04/04 00:46:13;;;;;;;13.65;11.95;;;;;;;-0.95;100.00;101167.25;691279;28;1513;-78
2022/04/04 00:46:39;;;;;;;14.60;11.77;;;;;;;-0.93;100.00;101169.88;690377;28;1628;-78
2022/04/04 00:47:00;;;;;;;16.05;11.50;;;;;;;-0.94;100.00;101165.53;688337;28;1576;-79
2022/04/04 00:47:21;;;;;;;13.70;11.37;;;;;;;-0.89;100.00;101157.28;688950;28;919;-79
2022/04/04 00:47:41;;;;;;;13.43;11.32;;;;;;;-0.84;100.00;101170.34;689394;28;4302;-79
2022/04/04 00:48:03;;;;;;;14.18;11.48;;;;;;;-0.82;100.00;101170.41;688446;28;2252;-78
2022/04/04 00:48:23;;;;;;;13.38;11.07;;;;;;;-0.81;100.00;101165.34;693400;28;1606;-78
2022/04/04 00:48:43;;;;;;;13.65;11.00;;;;;;;-0.76;100.00;101168.13;696289;28;1407;-79
2022/04/04 00:49:05;;;;;;;14.00;11.20;;;;;;;-0.76;100.00;101148.50;692194;28;1234;-78
2022/04/04 00:49:25;;;;;;;14.45;11.75;;;;;;;-0.74;100.00;101161.41;693937;28;1371;-78
2022/04/04 00:49:48;;;;;;;13.27;11.48;;;;;;;-0.80;100.00;101177.41;699578;28;1548;-79
2022/04/04 00:50:09;;;;;;;13.23;11.63;;;;;;;-0.80;100.00;101150.81;697949;28;1917;-79
2022/04/04 00:50:33;;;;;;;14.00;11.55;;;;;;;-0.85;100.00;101186.53;697548;28;4516;-79
2022/04/04 00:51:01;;;;;;;12.88;11.13;;;;;;;-0.88;100.00;101153.91;692629;28;1859;-78
2022/04/04 00:51:21;;;;;;;14.00;11.82;;;;;;;-0.90;100.00;101160.66;698208;28;1441;-78
2022/04/04 00:51:43;;;;;;;14.52;11.95;;;;;;;-0.92;100.00;101154.56;696998;28;1531;-78
2022/04/04 00:52:05;;;;;;;13.47;11.53;;;;;;;-0.97;100.00;101158.59;696681;28;1285;-78
2022/04/04 00:52:26;;;;;;;13.35;11.63;;;;;;;-0.97;100.00;101183.38;693347;28;1764;-78
2022/04/04 00:52:47;;;;;;;13.52;12.00;;;;;;;-1.01;100.00;101150.66;693245;28;1338;-78
2022/04/04 00:53:11;;;;;;;13.38;11.43;;;;;;;-1.06;100.00;101166.69;697080;28;1022;-78
2022/04/04 00:53:35;;;;;;;14.82;12.15;;;;;;;-1.08;100.00;101152.03;696583;28;4249;-79
2022/04/04 00:53:55;;;;;;;14.07;12.02;;;;;;;-1.13;100.00;101150.94;698137;28;1313;-78
2022/04/04 00:54:16;;;;;;;14.13;11.50;;;;;;;-1.11;100.00;101157.91;696787;28;1299;-78
2022/04/04 00:54:37;;;;;;;13.80;11.75;;;;;;;-1.15;100.00;101163.69;696609;28;1508;-78
2022/04/04 00:54:57;;;;;;;14.97;12.17;;;;;;;-1.20;100.00;101165.13;696317;28;1482;-79
2022/04/04 00:55:19;;;;;;;15.38;12.32;;;;;;;-1.23;100.00;101149.59;695252;28;1226;-79
2022/04/04 00:55:41;;;;;;;14.52;12.70;;;;;;;-1.18;100.00;101148.13;694428;28;1539;-79
2022/04/04 00:56:01;;;;;;;14.07;11.77;;;;;;;-1.09;100.00;101153.72;695185;28;1486;-78
2022/04/04 00:56:22;;;;;;;13.10;11.57;;;;;;;-1.01;100.00;101155.78;695884;28;1254;-79
2022/04/04 00:56:43;;;;;;;12.73;11.43;;;;;;;-1.02;100.00;101149.78;693213;28;4280;-78
2022/04/04 00:57:07;;;;;;;13.65;11.88;;;;;;;-1.05;100.00;101149.63;697497;28;1545;-79
2022/04/04 00:57:29;;;;;;;13.40;11.57;;;;;;;-1.11;100.00;101149.31;699985;28;1372;-78
2022/04/04 00:57:54;;;;;;;14.43;11.85;;;;;;;-1.15;100.00;101147.38;698292;28;1364;-78
2022/04/04 00:58:18;;;;;;;15.13;11.93;;;;;;;-1.15;100.00;101173.94;695799;28;1543;-79
2022/04/04 00:58:39;;;;;;;14.35;11.80;;;;;;;-1.18;100.00;101142.97;695939;28;1563;-78
2022/04/04 00:59:01;;;;;;;13.73;11.60;;;;;;;-1.21;100.00;101169.34;695283;28;1618;-79
2022/04/04 00:59:23;;;;;;;12.98;11.23;;;;;;;-1.23;100.00;101153.03;695247;28;1183;-78
2022/04/04 00:59:45;;;;;;;14.18;11.60;;;;;;;-1.27;100.00;101152.78;699064;28;4854;-78
2022/04/04 01:00:09;;;;;;;13.90;11.77;;;;;;;-1.28;100.00;101140.75;699400;28;953;-78
2022/04/04 01:00:29;;;;;;;14.15;12.27;;;;;;;-1.31;100.00;101171.41;700570;28;1548;-79
2022/04/04 01:00:53;;;;;;;14.53;12.57;;;;;;;-1.35;100.00;101159.22;695880;28;1430;-79
2022/04/04 01:01:14;;;;;;;14.43;12.50;;;;;;;-1.37;100.00;101169.41;694183;28;981;-78
2022/04/04 01:01:34;;;;;;;14.73;12.63;;;;;;;-1.36;100.00;101142.91;695762;28;1638;-78
2022/04/04 01:01:55;;;;;;;14.73;12.47;;;;;;;-1.36;100.00;101148.06;695423;28;1340;-78
2022/04/04 01:02:16;;;;;;;14.43;12.10;;;;;;;-1.35;100.00;101174.59;693801;28;1358;-78
2022/04/04 01:02:38;;;;;;;14.93;12.15;;;;;;;-1.37;100.00;101136.94;694198;28;4294;-78
2022/04/04 01:02:59;;;;;;;14.57;12.25;;;;;;;-1.34;100.00;101140.44;692727;28;1431;-78
2022/04/04 01:03:19;;;;;;;14.07;12.10;;;;;;;-1.32;100.00;101138.84;689150;28;1322;-78
2022/04/04 01:03:40;;;;;;;13.27;11.82;;;;;;;-1.27;100.00;101174.19;689847;28;1546;-79
2022/04/04 01:04:03;;;;;;;13.95;11.93;;;;;;;-1.31;100.00;101162.00;691802;28;1632;-79
2022/04/04 01:04:24;;;;;;;14.93;12.23;;;;;;;-1.31;100.00;101163.69;690802;28;1265;-78
2022/04/04 01:04:45;;;;;;;15.02;12.07;;;;;;;-1.31;100.00;101138.06;694513;28;1282;-78
2022/04/04 01:05:10;;;;;;;14.13;11.70;;;;;;;-1.29;100.00;101169.78;691876;28;1523;-79
2022/04/04 01:05:30;;;;;;;13.77;12.00;;;;;;;-1.30;100.00;101162.88;695911;28;4343;-78
2022/04/04 01:05:59;;;;;;;13.70;12.00;;;;;;;-1.30;100.00;101168.91;696781;28;888;-78
2022/04/04 01:06:19;;;;;;;16.05;12.65;;;;;;;-1.26;100.00;101134.00;695124;28;1285;-78
2022/04/04 01:06:40;;;;;;;14.83;12.27;;;;;;;-1.22;100.00;101152.22;694396;28;1657;-79
2022/04/04 01:07:01;;;;;;;14.77;12.40;;;;;;;-1.24;100.00;101158.06;688011;28;1912;-78
2022/04/04 01:07:22;;;;;;;15.50;12.63;;;;;;;-1.23;100.00;101132.50;691835;28;1535;-79
2022/04/04 01:07:42;;;;;;;14.60;12.40;;;;;;;-1.20;100.00;101157.44;692386;28;2173;-79
2022/04/04 01:08:03;;;;;;;15.68;11.80;;;;;;;-1.18;100.00;101135.28;693730;28;1455;-78
2022/04/04 01:08:24;;;;;;;15.35;12.00;;;;;;;-1.17;100.00;101126.78;697013;28;1156;-78
2022/04/04 01:08:48;;;;;;;13.57;11.20;;;;;;;-1.09;100.00;101134.88;692838;28;4628;-79
2022/04/04 01:09:14;;;;;;;13.70;11.80;;;;;;;-1.08;100.00;101154.59;694150;28;1528;-78
2022/04/04 01:09:37;;;;;;;14.18;11.60;;;;;;;-1.05;100.00;101159.91;696112;28;1806;-78
2022/04/04 01:09:58;;;;;;;13.70;11.63;;;;;;;-1.08;100.00;101132.41;696085;28;1481;-79
2022/04/04 01:10:19;;;;;;;13.20;11.45;;;;;;;-1.09;100.00;101130.63;697572;28;1882;-78
2022/04/04 01:10:43;;;;;;;12.80;11.40;;;;;;;-1.10;100.00;101128.84;696455;28;1678;-79
2022/04/04 01:11:03;;;;;;;13.70;11.77;;;;;;;-1.17;100.00;101124.22;694617;28;1462;-79
2022/04/04 01:11:26;;;;;;;13.40;11.90;;;;;;;-1.18;100.00;101132.72;695639;28;1261;-78
2022/04/04 01:12:06;;;;;;;13.20;11.80;;;;;;;-1.21;100.00;101128.31;693565;28;4913;-78
2022/04/04 01:12:26;;;;;;;13.63;11.50;;;;;;;-1.22;100.00;101130.81;696998;28;1281;-78
2022/04/04 01:12:54;;;;;;;14.93;12.35;;;;;;;-1.23;100.00;101136.75;695389;28;1060;-79
2022/04/04 01:13:14;;;;;;;13.20;11.35;;;;;;;-1.23;100.00;101126.50;693998;28;1695;-78
2022/04/04 01:13:35;;;;;;;13.40;11.43;;;;;;;-1.22;100.00;101130.81;696497;28;1724;-78
2022/04/04 01:13:55;;;;;;;14.23;11.77;;;;;;;-1.24;100.00;101130.72;696741;28;1013;-78
2022/04/04 01:14:18;;;;;;;14.03;11.93;;;;;;;-1.26;100.00;101128.88;696284;28;1502;-78
2022/04/04 01:14:48;;;;;;;14.32;12.05;;;;;;;-1.25;100.00;101140.91;693292;28;4265;-78
2022/04/04 01:15:09;;;;;;;14.23;11.95;;;;;;;-1.25;100.00;101133.22;690103;28;1568;-78
2022/04/04 01:15:32;;;;;;;13.80;11.60;;;;;;;-1.24;100.00;101128.16;694339;28;1406;-78
2022/04/04 01:15:53;;;;;;;15.07;11.75;;;;;;;-1.15;100.00;101121.72;692875;28;1304;-78
2022/04/04 01:16:14;;;;;;;12.93;11.53;;;;;;;-1.12;100.00;101121.88;701055;27;1367;-78
2022/04/04 01:16:34;;;;;;;13.48;11.82;;;;;;;-1.09;100.00;101119.50;700153;28;1472;-78
2022/04/04 01:16:55;;;;;;;14.00;11.77;;;;;;;-1.14;100.00;101119.25;695181;28;1257;-78
2022/04/04 01:17:17;;;;;;;13.73;11.85;;;;;;;-1.18;100.00;101127.59;695631;28;1437;-79
2022/04/04 01:17:38;;;;;;;13.73;11.60;;;;;;;-1.17;100.00;101126.78;696028;28;4292;-78
2022/04/04 01:17:59;;;;;;;13.63;11.48;;;;;;;-1.19;100.00;101120.72;695827;28;1346;-78
2022/04/04 01:18:19;;;;;;;13.43;11.18;;;;;;;-1.18;100.00;101124.16;698959;28;1408;-79
2022/04/04 01:18:40;;;;;;;13.23;11.80;;;;;;;-1.16;100.00;101113.16;700677;27;1420;-78
2022/04/04 01:19:01;;;;;;;13.25;11.80;;;;;;;-1.17;100.00;101129.34;700720;28;1412;-78
2022/04/04 01:19:24;;;;;;;14.37;11.97;;;;;;;-1.13;100.00;101120.13;702093;28;1717;-78
2022/04/04 01:19:45;;;;;;;15.80;11.48;;;;;;;-1.13;100.00;101115.88;701117;28;1104;-78
2022/04/04 01:20:06;;;;;;;14.05;11.73;;;;;;;-1.07;100.00;101136.69;701651;28;1714;-78
2022/04/04 01:20:29;;;;;;;13.80;11.45;;;;;;;-1.05;100.00;101135.09;697977;28;4970;-78
2022/04/04 01:20:50;;;;;;;14.23;11.48;;;;;;;-1.07;100.00;101146.09;695106;28;1902;-78
2022/04/04 01:21:11;;;;;;;15.15;11.32;;;;;;;-1.07;100.00;101146.09;695255;28;1861;-78
2022/04/04 01:21:31;;;;;;;14.00;11.57;;;;;;;-1.11;100.00;101129.69;690681;28;1220;-78
2022/04/04 01:21:53;;;;;;;12.82;11.40;;;;;;;-1.12;100.00;101140.75;693706;28;1477;-79
2022/04/04 01:22:15;;;;;;;13.00;11.38;;;;;;;-1.08;100.00;101129.81;695027;28;1307;-78
2022/04/04 01:22:36;;;;;;;12.45;11.05;;;;;;;-1.07;100.00;101126.44;698207;28;1477;-79
2022/04/04 01:22:57;;;;;;;12.75;10.85;;;;;;;-1.03;100.00;101110.38;700459;28;1078;-78
2022/04/04 01:23:24;;;;;;;12.80;11.30;;;;;;;-1.04;100.00;101131.75;697908;28;1511;-78
2022/04/04 01:23:49;;;;;;;13.40;11.68;;;;;;;-1.05;100.00;101136.81;697435;28;4898;-78
2022/04/04 01:24:20;;;;;;;13.20;11.73;;;;;;;-1.10;100.00;101146.81;696508;28;1432;-78
2022/04/04 01:24:42;;;;;;;12.63;11.10;;;;;;;-1.10;100.00;101117.72;697931;28;1403;-78
2022/04/04 01:25:05;;;;;;;12.95;11.25;;;;;;;-1.11;100.00;101144.16;695805;28;1301;-78
2022/04/04 01:25:30;;;;;;;13.15;11.25;;;;;;;-1.06;100.00;101127.34;695881;28;1287;-79
2022/04/04 01:25:52;;;;;;;12.88;10.90;;;;;;;-1.04;100.00;101103.50;695452;28;1464;-78
2022/04/04 01:26:13;;;;;;;12.30;10.60;;;;;;;-1.03;100.00;101112.94;694810;28;1690;-78
2022/04/04 01:26:37;;;;;;;12.63;11.30;;;;;;;-1.06;100.00;101117.94;685049;28;4347;-78
2022/04/04 01:26:58;;;;;;;13.10;11.43;;;;;;;-1.07;100.00;101121.28;695661;28;1313;-79
2022/04/04 01:27:19;;;;;;;13.82;11.57;;;;;;;-1.12;100.00;101112.50;696787;28;1375;-78
2022/04/04 01:27:39;;;;;;;13.95;11.95;;;;;;;-1.10;100.00;101115.16;693298;28;1650;-78
2022/04/04 01:28:04;;;;;;;13.52;11.48;;;;;;;-1.12;100.00;101107.38;692476;28;1581;-78
2022/04/04 01:28:25;;;;;;;13.00;11.38;;;;;;;-1.16;100.00;101141.38;696095;28;1560;-78
2022/04/04 01:28:46;;;;;;;13.80;12.10;;;;;;;-1.16;100.00;101105.47;697103;28;1905;-78
2022/04/04 01:29:06;;;;;;;13.48;11.48;;;;;;;-1.14;100.00;101115.81;693169;28;1315;-78
2022/04/04 01:29:27;;;;;;;14.03;11.27;;;;;;;-1.18;100.00;101132.72;695072;28;4280;-78
2022/04/04 01:29:47;;;;;;;14.23;11.40;;;;;;;-1.23;100.00;101134.19;694737;28;1645;-78
2022/04/04 01:30:10;;;;;;;13.47;11.37;;;;;;;-1.26;100.00;101140.03;693196;28;1481;-78
2022/04/04 01:30:34;;;;;;;14.52;11.77;;;;;;;-1.30;100.00;101117.59;693823;28;1493;-78
2022/04/04 01:30:57;;;;;;;14.52;11.77;;;;;;;-1.26;100.00;101108.34;695549;28;1379;-78
2022/04/04 01:31:17;;;;;;;15.33;11.67;;;;;;;-1.31;100.00;101105.56;694841;28;1221;-78
2022/04/04 01:31:37;;;;;;;14.83;11.83;;;;;;;-1.33;100.00;101108.84;693708;28;1354;-78
2022/04/04 01:31:58;;;;;;;13.32;11.55;;;;;;;-1.32;100.00;101108.94;695116;28;1464;-78
2022/04/04 01:32:18;;;;;;;13.33;11.73;;;;;;;-1.24;100.00;101109.34;696440;28;1345;-78
2022/04/04 01:32:39;;;;;;;13.93;11.65;;;;;;;-1.21;100.00;101106.91;696204;28;4386;-81
2022/04/04 01:33:00;;;;;;;14.93;11.70;;;;;;;-1.24;100.00;101109.34;698512;28;2137;-78
2022/04/04 01:33:20;;;;;;;13.82;11.30;;;;;;;-1.24;100.00;101105.06;693183;28;1486;-78
2022/04/04 01:33:41;;;;;;;13.32;11.75;;;;;;;-1.23;100.00;101104.28;695515;28;1427;-78
2022/04/04 01:34:01;;;;;;;13.37;11.53;;;;;;;-1.21;100.00;101101.78;697518;28;1491;-78
2022/04/04 01:34:22;;;;;;;14.18;11.88;;;;;;;-1.21;100.00;101117.19;696195;28;4704;-78
2022/04/04 01:34:42;;;;;;;14.85;11.68;;;;;;;-1.22;100.00;101100.00;695562;28;1599;-78
2022/04/04 01:35:03;;;;;;;15.77;11.87;;;;;;;-1.25;100.00;101111.00;695538;28;1484;-78
2022/04/04 01:35:24;;;;;;;13.68;11.32;;;;;;;-1.25;100.00;101103.31;697564;28;1201;-78
2022/04/04 01:35:44;;;;;;;14.65;11.80;;;;;;;-1.24;100.00;101106.78;697151;28;4501;-78
2022/04/04 01:36:05;;;;;;;14.93;11.60;;;;;;;-1.25;100.00;101105.88;697006;28;1811;-79
2022/04/04 01:36:26;;;;;;;14.10;11.70;;;;;;;-1.26;100.00;101101.56;699202;28;1570;-78
2022/04/04 01:36:46;;;;;;;14.43;11.50;;;;;;;-1.27;100.00;101111.75;697374;28;1431;-79
2022/04/04 01:37:09;;;;;;;13.95;11.43;;;;;;;-1.26;100.00;101109.25;694549;28;1283;-78
2022/04/04 01:37:30;;;;;;;13.25;11.20;;;;;;;-1.23;100.00;101103.41;693606;28;963;-78
2022/04/04 01:37:50;;;;;;;14.40;11.53;;;;;;;-1.28;100.00;101115.13;694555;28;1382;-78
2022/04/04 01:38:12;;;;;;;14.93;11.60;;;;;;;-1.30;100.00;101109.00;693548;28;939;-78
2022/04/04 01:38:32;;;;;;;13.87;11.43;;;;;;;-1.29;100.00;101108.22;691258;28;4297;-78
2022/04/04 01:38:52;;;;;;;13.10;11.45;;;;;;;-1.28;100.00;101115.97;691785;28;1788;-78
2022/04/04 01:39:13;;;;;;;14.27;11.80;;;;;;;-1.33;100.00;101106.28;696521;28;1370;-79
2022/04/04 01:39:34;;;;;;;13.70;11.82;;;;;;;-1.34;100.00;101104.53;693727;28;1554;-78